createdAt,value
2023-03-24T00:00:14.763Z,77.93
2023-03-24T00:04:17.892Z,77.99
2023-03-24T00:08:18.959Z,78.88
2023-03-24T00:12:19.986Z,78.53
2023-03-24T00:16:22.267Z,78.58
2023-03-24T00:20:27.578Z,78.74
2023-03-24T00:24:28.278Z,77.92
2023-03-24T00:28:28.806Z,78.28
2023-03-24T00:32:30.754Z,78.49
2023-03-24T00:36:34.134Z,78.38
2023-03-24T00:40:34.862Z,77.74
2023-03-24T00:44:36.585Z,77.23
2023-03-24T00:48:39.033Z,76.76
2023-03-24T00:52:44.687Z,77.10
2023-03-24T00:56:50.194Z,76.37
2023-03-24T01:00:53.440Z,75.94
2023-03-24T01:04:57.661Z,75.15
2023-03-24T01:09:03.076Z,75.80
2023-03-24T01:13:05.669Z,75.58
2023-03-24T01:17:08.022Z,76.53
2023-03-24T01:21:09.657Z,76.62
2023-03-24T01:25:17.030Z,77.79
2023-03-24T01:29:17.499Z,78.95
2023-03-24T01:33:19.640Z,78.99
2023-03-24T01:37:20.299Z,79.80
2023-03-24T01:41:23.748Z,79.95
2023-03-24T01:45:59.093Z,80.16
2023-03-24T01:50:05.696Z,79.38
2023-03-24T01:54:11.739Z,79.44
2023-03-24T01:58:15.283Z,80.94
2023-03-24T02:02:39.308Z,81.32
2023-03-24T02:06:44.270Z,81.39
2023-03-24T02:10:48.172Z,81.13
2023-03-24T02:14:52.495Z,80.59
2023-03-24T02:19:15.069Z,82.46
2023-03-24T02:23:50.515Z,82.73
2023-03-24T02:28:21.142Z,82.74
2023-03-24T02:33:14.287Z,82.78
2023-03-24T02:38:12.132Z,82.89
2023-03-24T02:42:29.954Z,83.44
2023-03-24T02:46:43.398Z,83.23
2023-03-24T02:50:52.922Z,82.99
2023-03-24T02:55:03.861Z,83.29
2023-03-24T02:59:12.928Z,82.58
2023-03-24T03:03:24.224Z,82.50
2023-03-24T03:07:33.834Z,82.36
2023-03-24T03:11:34.610Z,81.32
2023-03-24T03:15:42.514Z,80.75
2023-03-24T03:19:48.403Z,81.74
2023-03-24T03:23:55.725Z,81.40
2023-03-24T03:28:00.866Z,81.27
2023-03-24T03:32:08.933Z,79.83
2023-03-24T03:36:18.741Z,79.53
2023-03-24T03:40:26.126Z,79.77
2023-03-24T03:44:34.486Z,79.16
2023-03-24T03:48:39.816Z,79.04
2023-03-24T03:52:44.939Z,78.74
2023-03-24T03:56:47.163Z,78.62
2023-03-24T04:00:56.373Z,79.11
2023-03-24T04:05:33.515Z,79.50
2023-03-24T04:10:05.410Z,79.92
2023-03-24T04:14:26.649Z,79.50
2023-03-24T04:19:14.398Z,78.70
2023-03-24T04:23:30.997Z,79.58
2023-03-24T04:27:43.149Z,78.97
2023-03-24T04:31:53.764Z,79.89
2023-03-24T04:36:06.774Z,79.00
2023-03-24T04:40:27.380Z,79.20
2023-03-24T04:44:30.424Z,78.84
2023-03-24T04:48:51.297Z,78.90
2023-03-24T04:53:04.265Z,79.62
2023-03-24T04:57:09.005Z,79.25
2023-03-24T05:01:21.647Z,80.10
2023-03-24T05:05:42.341Z,79.87
2023-03-24T05:09:45.861Z,80.03
2023-03-24T05:13:50.153Z,79.96
2023-03-24T05:17:52.066Z,79.85
2023-03-24T05:21:54.572Z,78.70
2023-03-24T05:25:55.294Z,78.19
2023-03-24T05:30:00.620Z,77.96
2023-03-24T05:34:04.038Z,78.01
2023-03-24T05:38:07.598Z,77.77
2023-03-24T05:42:08.391Z,78.39
2023-03-24T05:46:12.080Z,78.30
2023-03-24T05:50:14.162Z,78.00
2023-03-24T05:54:14.982Z,78.37
2023-03-24T05:58:17.541Z,78.56
2023-03-24T06:02:25.616Z,78.36
2023-03-24T06:06:32.722Z,78.20
2023-03-24T06:10:33.444Z,78.60
2023-03-24T06:14:34.481Z,77.92
2023-03-24T06:18:44.518Z,77.27
2023-03-24T06:22:59.253Z,76.77
2023-03-24T06:27:09.090Z,76.39
2023-03-24T06:31:18.846Z,76.74
2023-03-24T06:35:22.486Z,77.11
2023-03-24T06:39:33.600Z,76.76
2023-03-24T06:43:35.690Z,76.83
2023-03-24T06:47:36.329Z,75.36
2023-03-24T06:51:41.049Z,74.59
2023-03-24T06:55:42.209Z,75.31
2023-03-24T06:59:45.054Z,75.39
2023-03-24T07:03:46.438Z,74.94
2023-03-24T07:08:27.856Z,75.02
2023-03-24T07:12:16.654Z,74.98
2023-03-24T07:16:18.546Z,75.28
2023-03-24T07:20:26.539Z,76.03
2023-03-24T07:24:52.236Z,75.68
2023-03-24T07:29:12.184Z,76.04
2023-03-24T07:33:35.822Z,75.34
2023-03-24T07:37:36.704Z,73.94
2023-03-24T07:41:40.480Z,73.43
2023-03-24T07:45:49.513Z,73.36
2023-03-24T07:49:54.319Z,73.53
2023-03-24T07:53:55.349Z,74.28
2023-03-24T07:58:10.556Z,73.59
2023-03-24T08:02:22.378Z,71.53
2023-03-24T08:07:00.985Z,71.46
2023-03-24T08:11:03.465Z,71.64
2023-03-24T08:15:09.892Z,71.30
2023-03-24T08:19:10.723Z,72.24
2023-03-24T08:23:11.472Z,73.26
2023-03-24T08:27:11.912Z,73.25
2023-03-24T08:31:16.529Z,73.62
2023-03-24T08:35:20.368Z,73.80
2023-03-24T08:39:21.222Z,73.55
2023-03-24T08:43:23.487Z,71.77
2023-03-24T08:47:26.627Z,70.01
2023-03-24T08:51:27.344Z,69.16
2023-03-24T08:55:31.184Z,67.88
2023-03-24T08:59:32.543Z,68.47
2023-03-24T09:03:36.817Z,69.76
2023-03-24T09:07:40.177Z,70.83
2023-03-24T09:11:41.885Z,70.09
2023-03-24T09:15:49.027Z,69.81
2023-03-24T09:19:52.462Z,70.91
2023-03-24T09:23:53.055Z,69.75
2023-03-24T09:27:57.744Z,71.15
2023-03-24T09:32:00.573Z,70.82
2023-03-24T09:36:08.073Z,73.14
2023-03-24T09:40:11.283Z,73.99
2023-03-24T09:44:26.548Z,74.62
2023-03-24T09:48:38.107Z,75.49
2023-03-24T09:52:47.221Z,76.70
2023-03-24T09:56:51.683Z,77.71
2023-03-24T10:00:54.607Z,78.88
2023-03-24T10:04:59.666Z,78.69
2023-03-24T10:09:25.606Z,81.66
2023-03-24T10:13:35.775Z,80.02
2023-03-24T10:17:51.250Z,80.63
2023-03-24T10:22:03.649Z,78.34
2023-03-24T10:26:20.256Z,78.81
2023-03-24T10:30:26.861Z,79.08
2023-03-24T10:34:35.035Z,77.10
2023-03-24T10:38:35.858Z,77.98
2023-03-24T10:42:42.021Z,75.15
2023-03-24T10:46:51.307Z,72.86
2023-03-24T10:50:52.453Z,67.94
2023-03-24T10:54:59.486Z,66.98
2023-03-24T10:59:07.336Z,69.38
2023-03-24T11:03:19.073Z,70.01
2023-03-24T11:07:26.752Z,69.75
2023-03-24T11:11:36.801Z,70.30
2023-03-24T11:16:01.366Z,67.75
2023-03-24T11:20:02.156Z,67.25
2023-03-24T11:24:05.783Z,68.60
2023-03-24T11:28:11.893Z,67.63
2023-03-24T11:32:25.132Z,69.05
2023-03-24T11:36:52.054Z,69.63
2023-03-24T11:41:02.835Z,68.72
2023-03-24T11:45:04.959Z,68.83
2023-03-24T11:49:08.973Z,69.27
2023-03-24T11:53:20.340Z,69.15
2023-03-24T11:57:45.444Z,68.84
2023-03-24T12:01:55.714Z,67.36
2023-03-24T12:06:15.822Z,66.98
2023-03-24T12:10:29.179Z,64.94
2023-03-24T12:14:48.288Z,61.60
2023-03-24T12:19:37.705Z,60.75
2023-03-24T12:23:52.874Z,62.78
2023-03-24T12:28:08.922Z,63.37
2023-03-24T12:32:23.701Z,61.48
2023-03-24T12:36:47.143Z,61.77
2023-03-24T12:41:18.825Z,60.12
2023-03-24T12:45:49.923Z,57.49
2023-03-24T12:50:15.305Z,58.56
2023-03-24T12:54:34.425Z,60.61
2023-03-24T12:58:47.455Z,60.38
2023-03-24T13:02:57.709Z,60.63
2023-03-24T13:07:07.377Z,60.69
2023-03-24T13:11:30.064Z,60.78
2023-03-24T13:15:44.500Z,61.00
2023-03-24T13:19:46.138Z,60.26
2023-03-24T13:23:57.805Z,54.93
2023-03-24T13:28:06.954Z,51.85
2023-03-24T13:32:17.470Z,51.69
2023-03-24T13:36:45.959Z,49.11
2023-03-24T13:40:51.088Z,49.20
2023-03-24T13:44:53.625Z,49.37
2023-03-24T13:49:03.453Z,50.23
2023-03-24T13:53:15.735Z,52.27
2023-03-24T13:57:24.437Z,53.55
2023-03-24T14:01:40.501Z,52.90
2023-03-24T14:06:05.142Z,53.48
2023-03-24T14:10:44.232Z,56.76
2023-03-24T14:15:19.603Z,62.56
2023-03-24T14:19:27.112Z,65.75
2023-03-24T14:23:41.014Z,70.14
2023-03-24T14:27:44.443Z,72.88
2023-03-24T14:31:48.054Z,75.18
2023-03-24T14:35:52.191Z,77.76
2023-03-24T14:39:57.622Z,80.74
2023-03-24T14:44:03.166Z,80.90
2023-03-24T14:48:06.177Z,80.67
2023-03-24T14:52:19.071Z,79.48
2023-03-24T14:56:26.118Z,76.92
2023-03-24T15:00:36.553Z,77.74
2023-03-24T15:04:40.051Z,77.42
2023-03-24T15:08:42.847Z,77.51
2023-03-24T15:12:51.779Z,76.87
2023-03-24T15:16:58.860Z,78.55
2023-03-24T15:20:59.461Z,79.62
2023-03-24T15:25:01.989Z,81.63
2023-03-24T15:29:09.506Z,82.05
2023-03-24T15:33:14.343Z,81.29
2023-03-24T15:37:26.277Z,78.94
2023-03-24T15:41:26.884Z,77.77
2023-03-24T15:45:33.931Z,75.91
2023-03-24T15:49:37.899Z,76.38
2023-03-24T15:53:49.571Z,75.00
2023-03-24T15:57:52.001Z,76.05
2023-03-24T16:01:56.342Z,73.66
2023-03-24T16:06:01.828Z,73.93
2023-03-24T16:10:10.265Z,71.92
2023-03-24T16:14:33.614Z,72.53
2023-03-24T16:18:41.097Z,72.39
2023-03-24T16:22:57.269Z,73.08
2023-03-24T16:26:57.812Z,72.26
2023-03-24T16:31:04.086Z,70.65
2023-03-24T16:35:04.854Z,70.83
2023-03-24T16:39:18.825Z,70.69
2023-03-24T16:43:20.003Z,69.49
2023-03-24T16:47:20.466Z,70.57
2023-03-24T16:51:22.146Z,69.64
2023-03-24T16:55:26.418Z,70.32
2023-03-24T16:59:27.413Z,70.69
2023-03-24T17:03:30.181Z,70.70
2023-03-24T17:07:31.411Z,69.74
2023-03-24T17:11:38.963Z,69.31
2023-03-24T17:15:39.401Z,68.58
2023-03-24T17:19:42.179Z,69.44
2023-03-24T17:23:44.434Z,68.65
2023-03-24T17:27:48.229Z,68.29
2023-03-24T17:31:48.849Z,67.51
2023-03-24T17:35:49.492Z,67.79
2023-03-24T17:39:49.933Z,68.35
2023-03-24T17:43:54.829Z,67.31
2023-03-24T17:47:56.567Z,67.39
2023-03-24T17:51:57.948Z,68.00
2023-03-24T17:56:06.071Z,67.28
2023-03-24T18:00:15.032Z,67.50
2023-03-24T18:04:17.845Z,67.37
2023-03-24T18:08:20.485Z,68.24
2023-03-24T18:12:24.285Z,68.59
2023-03-24T18:16:31.147Z,68.78
2023-03-24T18:20:33.062Z,67.05
2023-03-24T18:24:36.672Z,66.63
2023-03-24T18:28:40.083Z,67.71
2023-03-24T18:32:45.604Z,66.91
2023-03-24T18:36:50.582Z,66.85
2023-03-24T18:40:59.719Z,66.65
2023-03-24T18:45:02.818Z,66.18
2023-03-24T18:49:08.502Z,67.13
2023-03-24T18:53:10.264Z,67.06
2023-03-24T18:57:12.881Z,67.81
2023-03-24T19:01:23.272Z,68.18
2023-03-24T19:05:30.015Z,68.69
2023-03-24T19:09:32.602Z,68.20
2023-03-24T19:13:35.384Z,68.82
2023-03-24T19:17:37.595Z,68.93
2023-03-24T19:21:44.269Z,68.97
2023-03-24T19:25:46.875Z,69.57
2023-03-24T19:29:51.079Z,70.01
2023-03-24T19:33:54.589Z,70.92
2023-03-24T19:38:00.341Z,71.10
2023-03-24T19:42:04.667Z,70.88
2023-03-24T19:46:08.144Z,72.20
2023-03-24T19:50:11.689Z,71.81
2023-03-24T19:54:18.485Z,72.78
2023-03-24T19:58:21.877Z,72.42
2023-03-24T20:02:25.297Z,71.91
2023-03-24T20:06:28.298Z,71.96
2023-03-24T20:10:32.825Z,72.68
2023-03-24T20:14:37.579Z,72.81
2023-03-24T20:18:40.767Z,72.88
2023-03-24T20:22:46.123Z,72.85
2023-03-24T20:26:49.395Z,72.04
2023-03-24T20:30:52.119Z,72.66
2023-03-24T20:34:53.021Z,74.40
2023-03-24T20:38:53.681Z,74.17
2023-03-24T20:42:56.733Z,74.37
2023-03-24T20:46:59.363Z,74.46
2023-03-24T20:51:00.297Z,74.70
2023-03-24T20:55:01.668Z,75.52
2023-03-24T20:59:07.069Z,75.33
2023-03-24T21:03:08.061Z,75.63
2023-03-24T21:07:08.747Z,75.93
2023-03-24T21:11:09.810Z,76.88
2023-03-24T21:15:14.197Z,76.10
2023-03-24T21:19:16.364Z,76.36
2023-03-24T21:23:18.768Z,77.09
2023-03-24T21:27:21.824Z,76.95
2023-03-24T21:31:29.122Z,76.59
2023-03-24T21:35:31.753Z,76.59
2023-03-24T21:39:32.923Z,76.25
2023-03-24T21:43:35.111Z,76.44
2023-03-24T21:47:38.745Z,76.19
2023-03-24T21:51:43.011Z,76.15
2023-03-24T21:55:44.527Z,76.20
2023-03-24T21:59:45.125Z,75.59
2023-03-24T22:03:48.181Z,75.12
2023-03-24T22:07:50.360Z,75.63
2023-03-24T22:11:53.157Z,76.51
2023-03-24T22:15:58.022Z,75.80
2023-03-24T22:20:01.487Z,75.99
2023-03-24T22:24:02.269Z,75.75
2023-03-24T22:28:03.020Z,75.97
2023-03-24T22:32:04.112Z,75.50
2023-03-24T22:36:08.952Z,75.48
2023-03-24T22:40:13.643Z,74.74
2023-03-24T22:44:15.969Z,74.37
2023-03-24T22:48:16.391Z,73.82
2023-03-24T22:52:19.617Z,75.10
2023-03-24T22:56:20.704Z,74.69
2023-03-24T23:00:22.873Z,74.01
2023-03-24T23:04:23.957Z,73.25
2023-03-24T23:08:29.780Z,72.95
2023-03-24T23:12:32.397Z,73.40
2023-03-24T23:16:33.430Z,73.08
2023-03-24T23:20:33.998Z,72.26
2023-03-24T23:24:39.765Z,71.70
2023-03-24T23:28:40.468Z,71.78
2023-03-24T23:32:44.367Z,71.22
2023-03-24T23:36:50.112Z,70.98
2023-03-24T23:40:53.413Z,69.99
2023-03-24T23:44:54.186Z,69.50
2023-03-24T23:48:54.998Z,68.99
2023-03-24T23:52:55.621Z,68.80
2023-03-24T23:56:58.558Z,67.59
